Latest Coastal Weather Observations for Kiama

IDN60701

Issued at 11:51 pm EST Monday 21 August 2017 (issued every 10 minutes, with the page automatically refreshed every 10 minutes)

About coastal observations | Map of coastal stations | Coastal observations for NSW | Marine services | Other Formats
Station Details ID: 068242 Name: KIAMA (BOMBO HEADLAND) Lat: -34.65 Lon: 150.86 Height: 15.5 m
Data from the previous 72 hours. | See also: Recent months at Kiama
Date/Time
EST
Temp
°C
Wind Pressure Rain since
9am
mm
Weather Cloud Vis
km
Sea
Height
m
Swell
Dir  Spd
kts
Gust
kts
hPa Trend Height
m
Period
s
Dir
21/11:30pm 12.3 WNW 4 7 - - 0.0 - - - - - - -
21/11:00pm 12.0 NW 3 6 - - 0.0 - - - - - - -
21/10:30pm 12.4 NNW 3 4 - - 0.0 - - - - - - -
21/10:00pm 11.9 NW 2 3 - - 0.0 - - - - - - -
21/09:30pm 12.4 WNW 3 5 - - 0.0 - - - - - - -
21/09:00pm 12.3 W 4 5 - - 0.0 - - - - - - -
21/08:30pm 12.6 W 3 4 - - 0.0 - - - - - - -
21/08:00pm 12.9 W 3 5 - - 0.0 - - - - - - -
21/07:30pm 13.1 W 4 5 - - 0.0 - - - - - - -
21/07:00pm 12.9 W 4 5 - - 0.0 - - - - - - -
21/06:30pm 13.8 WNW 4 6 - - 0.0 - - - - - - -
21/06:00pm 14.2 WNW 5 5 - - 0.0 - - - - - - -
21/05:30pm 14.6 NW 3 5 - - 0.0 - - - - - - -
21/05:00pm 14.8 NNW 3 4 - - 0.0 - - - - - - -
21/04:30pm 15.1 CALM 0 0 - - 0.0 - - - - - - -
21/04:00pm 15.8 CALM 0 1 - - 0.0 - - - - - - -
21/03:30pm 15.7 NNW 1 3 - - 0.0 - - - - - - -
21/03:00pm 15.6 NNW 2 4 - - 0.0 - - - - - - -
21/02:30pm 15.2 NW 3 4 - - 0.0 - - - - - - -
21/02:00pm 15.3 NNW 4 6 - - 0.0 - - - - - - -
21/01:30pm 15.4 NNW 6 8 - - 0.0 - - - - - - -
21/01:00pm 15.7 WNW 9 15 - - 0.0 - - - - - - -
21/12:30pm 15.9 NNW 7 12 - - 0.0 - - - - - - -
21/12:00pm 15.3 NNW 5 9 - - 0.0 - - - - - - -
21/11:30am 15.0 N 4 7 - - 0.0 - - - - - - -
21/11:00am 15.1 NNE 5 7 - - 0.0 - - - - - - -
21/10:30am 14.9 N 5 8 - - 0.0 - - - - - - -
21/10:00am 14.3 N 5 7 - - 0.0 - - - - - - -
21/09:30am 13.8 NNW 8 11 - - 0.0 - - - - - - -
21/09:00am 13.4 NNW 6 9 - - 0.0 - - - - - - -
21/08:30am 13.3 NW 7 10 - - 0.0 - - - - - - -
21/08:00am 11.9 NNW 3 5 - - 0.0 - - - - - - -
21/07:30am 11.3 NNW 2 3 - - 0.0 - - - - - - -
21/07:00am 11.3 NW 5 7 - - 0.0 - - - - - - -
21/06:30am 10.7 WNW 5 5 - - 0.0 - - - - - - -
21/06:00am 11.1 NW 6 8 - - 0.0 - - - - - - -
21/05:30am 10.9 NW 5 6 - - 0.0 - - - - - - -
21/05:00am 11.5 NW 3 5 - - 0.0 - - - - - - -
21/04:30am 11.4 WNW 3 5 - - 0.0 - - - - - - -
21/04:00am 11.6 WNW 5 7 - - 0.0 - - - - - - -
21/03:30am 11.3 WNW 5 6 - - 0.0 - - - - - - -
21/03:00am 11.1 W 6 7 - - 0.0 - - - - - - -
21/02:30am 11.0 WNW 6 7 - - 0.0 - - - - - - -
21/02:00am 10.6 WNW 6 7 - - 0.0 - - - - - - -
21/01:30am 10.1 WNW 7 8 - - 0.0 - - - - - - -
21/01:00am 10.0 WNW 6 6 - - 0.0 - - - - - - -
21/12:30am 9.8 WNW 6 7 - - 0.0 - - - - - - -
21/12:00am 9.6 WNW 6 8 - - 0.0 - - - - - - -
 
Date/Time
EST
Temp
°C
Wind Pressure Rain since
9am
mm
Weather Cloud Vis
km
Sea
Height
m
Swell
Dir  Spd
kts
Gust
kts
hPa Trend Height
m
Period
s
Dir
20/11:30pm 10.2 W 5 7 - - 0.0 - - - - - - -
20/11:00pm 9.8 W 5 6 - - 0.0 - - - - - - -
20/10:30pm 9.7 W 5 7 - - 0.0 - - - - - - -
20/10:00pm 9.4 W 6 7 - - 0.0 - - - - - - -
20/09:30pm 9.7 W 5 6 - - 0.0 - - - - - - -
20/09:00pm 9.8 W 6 8 - - 0.0 - - - - - - -
20/08:30pm 9.6 W 5 7 - - 0.0 - - - - - - -
20/08:00pm 10.1 W 4 6 - - 0.0 - - - - - - -
20/07:30pm 11.6 SW 4 7 - - 0.0 - - - - - - -
20/07:00pm 12.1 SSW 5 6 - - 0.0 - - - - - - -
20/06:30pm 12.1 SSW 7 9 - - 0.0 - - - - - - -
20/06:00pm 12.4 SSW 8 10 - - 0.0 - - - - - - -
20/05:30pm 12.6 SSW 8 10 - - 0.0 - - - - - - -
20/05:00pm 13.1 S 11 13 - - 0.0 - - - - - - -
20/04:30pm 13.4 S 11 14 - - 0.0 - - - - - - -
20/04:00pm 13.8 S 11 15 - - 0.0 - - - - - - -
20/03:30pm 13.8 S 13 18 - - 0.0 - - - - - - -
20/03:00pm 14.0 S 12 16 - - 0.0 - - - - - - -
20/02:30pm 13.6 S 13 16 - - 0.0 - - - - - - -
20/02:00pm 13.8 S 14 19 - - 0.0 - - - - - - -
20/01:30pm 13.9 S 14 19 - - 0.0 - - - - - - -
20/01:00pm 13.2 S 15 21 - - 0.0 - - - - - - -
20/12:30pm 13.5 SSW 17 22 - - 0.0 - - - - - - -
20/12:00pm 13.3 SSW 17 25 - - 0.0 - - - - - - -
20/11:30am 13.2 S 17 25 - - 0.0 - - - - - - -
20/11:00am 13.2 SSW 15 23 - - 0.0 - - - - - - -
20/10:30am 12.6 SSW 17 22 - - 0.0 - - - - - - -
20/10:00am 12.7 SSW 14 20 - - 0.0 - - - - - - -
20/09:53am 12.5 SSW 15 26 - - 0.0 - - - - - - -
20/09:30am 12.2 SSW 16 20 - - 0.0 - - - - - - -
20/09:00am 11.8 SSW 14 21 - - 0.0 - - - - - - -
20/08:30am 11.2 SSW 15 21 - - 0.0 - - - - - - -
20/08:00am 10.9 SSW 16 24 - - 0.0 - - - - - - -
20/07:30am 10.3 SW 13 20 - - 0.0 - - - - - - -
20/07:00am 10.0 SW 11 17 - - 0.0 - - - - - - -
20/06:30am 9.8 SW 14 21 - - 0.0 - - - - - - -
20/06:00am 9.9 SSW 16 20 - - 0.0 - - - - - - -
20/05:30am 9.7 SSW 15 22 - - 0.0 - - - - - - -
20/05:00am 9.7 SW 15 23 - - 0.0 - - - - - - -
20/04:34am 9.7 SSW 15 25 - - 0.0 - - - - - - -
20/04:30am 9.8 SSW 14 19 - - 0.0 - - - - - - -
20/04:00am 9.9 SSW 16 25 - - 0.0 - - - - - - -
20/03:30am 10.0 SSW 18 25 - - 0.0 - - - - - - -
20/03:00am 10.1 SSW 21 28 - - 0.0 - - - - - - -
20/02:31am 10.1 SSW 19 29 - - 0.0 - - - - - - -
20/02:30am 10.2 SSW 19 25 - - 0.0 - - - - - - -
20/02:00am 10.2 SSW 19 26 - - 0.0 - - - - - - -
20/01:30am 10.3 SSW 20 28 - - 0.0 - - - - - - -
20/01:00am 10.3 SSW 21 28 - - 0.0 - - - - - - -
20/12:30am 10.3 SSW 19 27 - - 0.0 - - - - - - -
20/12:00am 10.4 SSW 19 27 - - 0.0 - - - - - - -
 
Date/Time
EST
Temp
°C
Wind Pressure Rain since
9am
mm
Weather Cloud Vis
km
Sea
Height
m
Swell
Dir  Spd
kts
Gust
kts
hPa Trend Height
m
Period
s
Dir
19/11:30pm 10.6 SSW 18 26 - - 0.0 - - - - - - -
19/11:00pm 10.8 SSW 19 27 - - 0.0 - - - - - - -
19/10:30pm 11.0 SSW 18 24 - - 0.0 - - - - - - -
19/10:00pm 11.1 SSW 18 25 - - 0.0 - - - - - - -
19/09:30pm 11.3 SSW 18 23 - - 0.0 - - - - - - -
19/09:00pm 11.4 SSW 16 20 - - 0.0 - - - - - - -
19/08:30pm 11.5 SSW 13 18 - - 0.0 - - - - - - -
19/08:00pm 11.8 SSW 13 17 - - 0.0 - - - - - - -
19/07:30pm 11.9 SSW 13 18 - - 0.0 - - - - - - -
19/07:00pm 12.3 SSW 14 23 - - 0.0 - - - - - - -
19/06:30pm 12.4 SSW 14 21 - - 0.0 - - - - - - -
19/06:03pm 12.7 SSW 21 31 - - 0.0 - - - - - - -
19/06:00pm 12.8 SSW 24 31 - - 0.0 - - - - - - -
19/05:39pm 12.8 SSW 20 32 - - 0.0 - - - - - - -
19/05:30pm 12.8 SSW 22 29 - - 0.0 - - - - - - -
19/05:00pm 12.9 SSW 24 31 - - 0.0 - - - - - - -
19/04:40pm 13.1 SSW 23 33 - - 0.0 - - - - - - -
19/04:30pm 13.2 S 24 31 - - 0.0 - - - - - - -
19/04:00pm 13.3 SSW 24 31 - - 0.0 - - - - - - -
19/03:30pm 13.6 S 21 29 - - 0.0 - - - - - - -
19/03:00pm 13.7 SSW 24 31 - - 0.0 - - - - - - -
19/02:30pm 13.8 S 25 32 - - 0.0 - - - - - - -
19/02:00pm 14.2 SSW 23 31 - - 0.0 - - - - - - -
19/01:32pm 14.0 SSW 20 31 - - 0.0 - - - - - - -
19/01:30pm 14.0 SSW 19 25 - - 0.0 - - - - - - -
19/01:00pm 13.5 SSW 24 34 - - 0.0 - - - - - - -
19/12:30pm 13.4 SSW 24 34 - - 0.0 - - - - - - -
19/12:02pm 13.3 SSW 27 37 - - 0.0 - - - - - - -
19/12:00pm 13.3 SSW 27 37 - - 0.0 - - - - - - -
19/11:31am 13.0 SSW 25 35 - - 0.0 - - - - - - -
19/11:30am 12.9 SSW 26 35 - - 0.0 - - - - - - -
19/11:00am 12.7 SSW 27 38 - - 0.0 - - - - - - -
19/10:30am 12.4 SSW 23 35 - - 0.0 - - - - - - -
19/10:06am 12.2 SSW 22 40 - - 0.0 - - - - - - -
19/10:00am 12.5 SSW 19 29 - - 0.0 - - - - - - -
19/09:30am 12.0 SW 20 35 - - 0.0 - - - - - - -
19/09:00am 11.6 SW 20 30 - - 0.0 - - - - - - -
19/08:34am 11.3 SW 17 27 - - 0.0 - - - - - - -
19/08:30am 11.3 SW 17 24 - - 0.0 - - - - - - -
19/08:00am 10.9 SW 18 30 - - 0.0 - - - - - - -
19/07:30am 10.8 SW 20 31 - - 0.0 - - - - - - -
19/07:15am 10.6 SW 18 28 - - 0.0 - - - - - - -
19/07:00am 10.5 SW 18 28 - - 0.0 - - - - - - -
19/06:30am 10.4 SW 18 31 - - 0.0 - - - - - - -
19/06:00am 10.3 SW 17 31 - - 0.0 - - - - - - -
19/05:55am 10.4 SW 15 27 - - 0.0 - - - - - - -
19/05:30am 10.2 SW 14 23 - - 0.0 - - - - - - -
19/05:08am 10.2 WSW 15 27 - - 0.0 - - - - - - -
19/05:00am 10.0 WSW 14 23 - - 0.0 - - - - - - -
19/04:57am 10.0 SW 15 25 - - 0.0 - - - - - - -
19/04:30am 10.0 WSW 14 20 - - 0.0 - - - - - - -
19/04:00am 9.9 WSW 15 24 - - 0.0 - - - - - - -
19/03:44am 9.7 WSW 15 25 - - 0.0 - - - - - - -
19/03:30am 9.8 WSW 13 20 - - 0.0 - - - - - - -
19/03:00am 10.2 WSW 17 27 - - 0.0 - - - - - - -
19/02:41am 10.3 WSW 15 27 - - 0.0 - - - - - - -
19/02:30am 10.5 WSW 14 25 - - 0.0 - - - - - - -
19/02:07am 11.2 SW 15 27 - - 0.0 - - - - - - -
19/02:00am 11.0 WSW 13 21 - - 0.0 - - - - - - -
19/01:45am 10.4 WSW 16 26 - - 0.0 - - - - - - -
19/01:30am 10.4 WSW 20 29 - - 0.0 - - - - - - -
19/01:00am 10.6 WSW 18 30 - - 0.0 - - - - - - -
19/12:30am 10.8 WSW 18 28 - - 0.0 - - - - - - -
19/12:00am 10.9 WSW 18 30 - - 0.0 - - - - - - -

Other Formats:

Comma delimited format used in spreadsheet applications
http://www.bom.gov.au/fwo/IDN60701/IDN60701.95749.axf

JavaScript Object Notation format (JSON) in row-major order
http://www.bom.gov.au/fwo/IDN60701/IDN60701.95749.json